sensor_id;sensor_type;location;lat;lon;timestamp;P1;durP1;ratioP1;P2;durP2;ratioP2
46407;SDS011;32110;45.724;21.276;2024-03-06T00:01:39;28.40;;;15.57;;
46407;SDS011;32110;45.724;21.276;2024-03-06T00:04:04;30.00;;;15.70;;
46407;SDS011;32110;45.724;21.276;2024-03-06T00:06:30;31.40;;;16.17;;
46407;SDS011;32110;45.724;21.276;2024-03-06T00:08:55;33.15;;;15.40;;
46407;SDS011;32110;45.724;21.276;2024-03-06T00:11:21;31.55;;;16.80;;
46407;SDS011;32110;45.724;21.276;2024-03-06T00:13:47;27.35;;;15.45;;
46407;SDS011;32110;45.724;21.276;2024-03-06T00:16:13;28.77;;;16.13;;
46407;SDS011;32110;45.724;21.276;2024-03-06T00:18:38;35.47;;;15.55;;
46407;SDS011;32110;45.724;21.276;2024-03-06T00:21:05;40.10;;;17.25;;
46407;SDS011;32110;45.724;21.276;2024-03-06T00:23:30;33.28;;;17.83;;
46407;SDS011;32110;45.724;21.276;2024-03-06T00:25:56;37.40;;;18.58;;
46407;SDS011;32110;45.724;21.276;2024-03-06T00:28:21;33.08;;;17.50;;
46407;SDS011;32110;45.724;21.276;2024-03-06T00:30:47;30.23;;;16.67;;
46407;SDS011;32110;45.724;21.276;2024-03-06T00:33:12;34.28;;;17.05;;
46407;SDS011;32110;45.724;21.276;2024-03-06T00:35:38;42.17;;;18.15;;
46407;SDS011;32110;45.724;21.276;2024-03-06T00:38:03;38.45;;;17.55;;
46407;SDS011;32110;45.724;21.276;2024-03-06T00:40:29;36.63;;;18.08;;
46407;SDS011;32110;45.724;21.276;2024-03-06T00:42:56;39.35;;;18.60;;
46407;SDS011;32110;45.724;21.276;2024-03-06T00:45:22;36.92;;;18.38;;
46407;SDS011;32110;45.724;21.276;2024-03-06T00:47:47;39.42;;;18.10;;
46407;SDS011;32110;45.724;21.276;2024-03-06T00:50:13;37.17;;;17.20;;
46407;SDS011;32110;45.724;21.276;2024-03-06T00:52:38;38.42;;;18.00;;
46407;SDS011;32110;45.724;21.276;2024-03-06T00:55:04;39.72;;;18.67;;
46407;SDS011;32110;45.724;21.276;2024-03-06T00:57:30;31.75;;;17.92;;
46407;SDS011;32110;45.724;21.276;2024-03-06T00:59:56;31.83;;;16.92;;
46407;SDS011;32110;45.724;21.276;2024-03-06T01:02:21;35.20;;;17.42;;
46407;SDS011;32110;45.724;21.276;2024-03-06T01:04:47;36.38;;;17.95;;
46407;SDS011;32110;45.724;21.276;2024-03-06T01:07:12;34.05;;;17.10;;
46407;SDS011;32110;45.724;21.276;2024-03-06T01:09:37;37.25;;;18.65;;
46407;SDS011;32110;45.724;21.276;2024-03-06T01:12:03;32.67;;;17.25;;
46407;SDS011;32110;45.724;21.276;2024-03-06T01:14:30;34.35;;;18.10;;
46407;SDS011;32110;45.724;21.276;2024-03-06T01:16:56;32.25;;;16.70;;
46407;SDS011;32110;45.724;21.276;2024-03-06T01:19:21;43.72;;;17.90;;
46407;SDS011;32110;45.724;21.276;2024-03-06T01:21:48;35.53;;;18.83;;
46407;SDS011;32110;45.724;21.276;2024-03-06T01:24:13;43.53;;;20.13;;
46407;SDS011;32110;45.724;21.276;2024-03-06T01:26:39;34.63;;;19.83;;
46407;SDS011;32110;45.724;21.276;2024-03-06T01:29:05;40.20;;;20.13;;
46407;SDS011;32110;45.724;21.276;2024-03-06T01:31:31;35.08;;;18.52;;
46407;SDS011;32110;45.724;21.276;2024-03-06T01:33:56;34.53;;;18.77;;
46407;SDS011;32110;45.724;21.276;2024-03-06T01:36:22;34.33;;;18.48;;
46407;SDS011;32110;45.724;21.276;2024-03-06T01:38:47;39.30;;;19.23;;
46407;SDS011;32110;45.724;21.276;2024-03-06T01:41:14;38.15;;;19.15;;
46407;SDS011;32110;45.724;21.276;2024-03-06T01:43:39;43.80;;;18.55;;
46407;SDS011;32110;45.724;21.276;2024-03-06T01:46:05;40.83;;;20.00;;
46407;SDS011;32110;45.724;21.276;2024-03-06T01:48:31;42.22;;;21.33;;
46407;SDS011;32110;45.724;21.276;2024-03-06T01:50:57;50.55;;;23.80;;
46407;SDS011;32110;45.724;21.276;2024-03-06T01:53:27;47.08;;;23.83;;
46407;SDS011;32110;45.724;21.276;2024-03-06T01:58:23;34.90;;;20.02;;
46407;SDS011;32110;45.724;21.276;2024-03-06T02:00:49;40.15;;;20.33;;
46407;SDS011;32110;45.724;21.276;2024-03-06T02:03:15;37.17;;;19.95;;
46407;SDS011;32110;45.724;21.276;2024-03-06T02:05:41;37.47;;;19.33;;
46407;SDS011;32110;45.724;21.276;2024-03-06T02:08:08;36.25;;;19.83;;
46407;SDS011;32110;45.724;21.276;2024-03-06T02:10:33;41.17;;;21.40;;
46407;SDS011;32110;45.724;21.276;2024-03-06T02:12:59;36.80;;;19.55;;
46407;SDS011;32110;45.724;21.276;2024-03-06T02:15:25;37.92;;;20.50;;
46407;SDS011;32110;45.724;21.276;2024-03-06T02:17:51;41.30;;;20.88;;
46407;SDS011;32110;45.724;21.276;2024-03-06T02:20:23;36.17;;;20.83;;
46407;SDS011;32110;45.724;21.276;2024-03-06T02:22:49;38.90;;;20.08;;
46407;SDS011;32110;45.724;21.276;2024-03-06T02:25:15;45.65;;;21.30;;
46407;SDS011;32110;45.724;21.276;2024-03-06T02:27:42;36.65;;;21.58;;
46407;SDS011;32110;45.724;21.276;2024-03-06T02:30:08;47.30;;;21.20;;
46407;SDS011;32110;45.724;21.276;2024-03-06T02:32:35;42.20;;;21.20;;
46407;SDS011;32110;45.724;21.276;2024-03-06T02:35:01;45.33;;;22.42;;
46407;SDS011;32110;45.724;21.276;2024-03-06T02:37:33;44.53;;;20.63;;
46407;SDS011;32110;45.724;21.276;2024-03-06T02:39:59;43.40;;;21.00;;
46407;SDS011;32110;45.724;21.276;2024-03-06T02:42:26;40.67;;;20.75;;
46407;SDS011;32110;45.724;21.276;2024-03-06T02:44:52;39.63;;;20.60;;
46407;SDS011;32110;45.724;21.276;2024-03-06T02:47:18;38.63;;;19.98;;
46407;SDS011;32110;45.724;21.276;2024-03-06T02:49:44;40.97;;;21.63;;
46407;SDS011;32110;45.724;21.276;2024-03-06T02:52:10;41.92;;;20.67;;
46407;SDS011;32110;45.724;21.276;2024-03-06T02:54:35;40.05;;;21.35;;
46407;SDS011;32110;45.724;21.276;2024-03-06T02:57:01;43.50;;;21.33;;
46407;SDS011;32110;45.724;21.276;2024-03-06T02:59:26;40.08;;;19.58;;
46407;SDS011;32110;45.724;21.276;2024-03-06T03:01:52;44.25;;;20.60;;
46407;SDS011;32110;45.724;21.276;2024-03-06T03:04:18;42.95;;;20.77;;
46407;SDS011;32110;45.724;21.276;2024-03-06T03:06:43;38.58;;;19.58;;
46407;SDS011;32110;45.724;21.276;2024-03-06T03:09:09;38.03;;;19.40;;
46407;SDS011;32110;45.724;21.276;2024-03-06T03:11:37;32.63;;;17.42;;
46407;SDS011;32110;45.724;21.276;2024-03-06T03:14:02;33.13;;;17.20;;
46407;SDS011;32110;45.724;21.276;2024-03-06T03:16:28;34.00;;;17.83;;
46407;SDS011;32110;45.724;21.276;2024-03-06T03:18:55;35.22;;;18.88;;
46407;SDS011;32110;45.724;21.276;2024-03-06T03:21:20;35.42;;;18.63;;
46407;SDS011;32110;45.724;21.276;2024-03-06T03:23:46;31.40;;;17.27;;
46407;SDS011;32110;45.724;21.276;2024-03-06T03:26:12;35.60;;;17.83;;
46407;SDS011;32110;45.724;21.276;2024-03-06T03:28:38;34.28;;;18.02;;
46407;SDS011;32110;45.724;21.276;2024-03-06T03:31:05;33.08;;;17.55;;
46407;SDS011;32110;45.724;21.276;2024-03-06T03:33:34;37.70;;;18.30;;
46407;SDS011;32110;45.724;21.276;2024-03-06T03:36:03;34.80;;;19.60;;
46407;SDS011;32110;45.724;21.276;2024-03-06T03:38:31;39.72;;;19.77;;
46407;SDS011;32110;45.724;21.276;2024-03-06T03:40:56;40.58;;;19.42;;
46407;SDS011;32110;45.724;21.276;2024-03-06T03:43:22;39.75;;;18.55;;
46407;SDS011;32110;45.724;21.276;2024-03-06T03:45:47;40.65;;;19.38;;
46407;SDS011;32110;45.724;21.276;2024-03-06T03:48:12;43.95;;;20.38;;
46407;SDS011;32110;45.724;21.276;2024-03-06T03:50:38;51.90;;;22.33;;
46407;SDS011;32110;45.724;21.276;2024-03-06T03:53:03;42.25;;;20.75;;
46407;SDS011;32110;45.724;21.276;2024-03-06T03:55:29;34.70;;;19.02;;
46407;SDS011;32110;45.724;21.276;2024-03-06T03:57:55;27.45;;;15.63;;
46407;SDS011;32110;45.724;21.276;2024-03-06T04:00:21;30.45;;;15.63;;
46407;SDS011;32110;45.724;21.276;2024-03-06T04:02:48;27.98;;;14.80;;
46407;SDS011;32110;45.724;21.276;2024-03-06T04:05:13;26.77;;;15.30;;
46407;SDS011;32110;45.724;21.276;2024-03-06T04:07:39;29.63;;;15.10;;
46407;SDS011;32110;45.724;21.276;2024-03-06T04:10:05;25.60;;;15.05;;
46407;SDS011;32110;45.724;21.276;2024-03-06T04:12:31;29.73;;;15.63;;
46407;SDS011;32110;45.724;21.276;2024-03-06T04:14:57;30.77;;;16.02;;
46407;SDS011;32110;45.724;21.276;2024-03-06T04:17:22;29.35;;;15.45;;
46407;SDS011;32110;45.724;21.276;2024-03-06T04:19:48;28.30;;;15.10;;
46407;SDS011;32110;45.724;21.276;2024-03-06T04:22:14;28.42;;;15.50;;
46407;SDS011;32110;45.724;21.276;2024-03-06T04:24:41;30.85;;;16.38;;
46407;SDS011;32110;45.724;21.276;2024-03-06T04:27:06;30.42;;;16.02;;
46407;SDS011;32110;45.724;21.276;2024-03-06T04:29:32;28.52;;;16.15;;
46407;SDS011;32110;45.724;21.276;2024-03-06T04:31:57;31.40;;;16.07;;
46407;SDS011;32110;45.724;21.276;2024-03-06T04:34:23;29.10;;;16.27;;
46407;SDS011;32110;45.724;21.276;2024-03-06T04:36:48;32.53;;;16.88;;
46407;SDS011;32110;45.724;21.276;2024-03-06T04:39:13;35.10;;;17.17;;
46407;SDS011;32110;45.724;21.276;2024-03-06T04:41:39;31.67;;;16.95;;
46407;SDS011;32110;45.724;21.276;2024-03-06T04:44:05;37.00;;;17.35;;
46407;SDS011;32110;45.724;21.276;2024-03-06T04:46:31;33.83;;;17.38;;
46407;SDS011;32110;45.724;21.276;2024-03-06T04:48:56;31.48;;;16.52;;
46407;SDS011;32110;45.724;21.276;2024-03-06T04:51:22;27.58;;;16.77;;
46407;SDS011;32110;45.724;21.276;2024-03-06T04:53:47;29.88;;;15.23;;
46407;SDS011;32110;45.724;21.276;2024-03-06T04:56:13;28.63;;;16.83;;
46407;SDS011;32110;45.724;21.276;2024-03-06T04:58:38;27.38;;;15.00;;
46407;SDS011;32110;45.724;21.276;2024-03-06T05:01:03;28.77;;;15.50;;
46407;SDS011;32110;45.724;21.276;2024-03-06T05:03:29;30.85;;;16.10;;
46407;SDS011;32110;45.724;21.276;2024-03-06T05:05:54;31.08;;;16.67;;
46407;SDS011;32110;45.724;21.276;2024-03-06T05:08:19;33.92;;;16.90;;
46407;SDS011;32110;45.724;21.276;2024-03-06T05:10:45;31.80;;;17.48;;
46407;SDS011;32110;45.724;21.276;2024-03-06T05:13:10;30.80;;;17.20;;
46407;SDS011;32110;45.724;21.276;2024-03-06T05:15:36;40.10;;;18.15;;
46407;SDS011;32110;45.724;21.276;2024-03-06T05:18:01;34.38;;;16.67;;
46407;SDS011;32110;45.724;21.276;2024-03-06T05:20:27;35.45;;;17.10;;
46407;SDS011;32110;45.724;21.276;2024-03-06T05:22:53;35.83;;;17.65;;
46407;SDS011;32110;45.724;21.276;2024-03-06T05:25:18;33.10;;;17.23;;
46407;SDS011;32110;45.724;21.276;2024-03-06T05:27:43;35.92;;;17.38;;
46407;SDS011;32110;45.724;21.276;2024-03-06T05:30:09;43.73;;;16.60;;
46407;SDS011;32110;45.724;21.276;2024-03-06T05:32:34;33.25;;;18.05;;
46407;SDS011;32110;45.724;21.276;2024-03-06T05:34:59;34.55;;;18.23;;
46407;SDS011;32110;45.724;21.276;2024-03-06T05:37:25;35.58;;;17.92;;
46407;SDS011;32110;45.724;21.276;2024-03-06T05:39:50;33.88;;;18.25;;
46407;SDS011;32110;45.724;21.276;2024-03-06T05:42:15;36.20;;;18.13;;
46407;SDS011;32110;45.724;21.276;2024-03-06T05:44:41;36.58;;;18.63;;
46407;SDS011;32110;45.724;21.276;2024-03-06T05:47:06;37.38;;;18.58;;
46407;SDS011;32110;45.724;21.276;2024-03-06T05:49:32;36.15;;;17.85;;
46407;SDS011;32110;45.724;21.276;2024-03-06T05:51:57;38.25;;;19.00;;
46407;SDS011;32110;45.724;21.276;2024-03-06T05:54:23;46.33;;;19.95;;
46407;SDS011;32110;45.724;21.276;2024-03-06T05:56:49;49.28;;;21.52;;
46407;SDS011;32110;45.724;21.276;2024-03-06T05:59:16;43.33;;;20.13;;
46407;SDS011;32110;45.724;21.276;2024-03-06T06:01:41;40.95;;;20.50;;
46407;SDS011;32110;45.724;21.276;2024-03-06T06:04:07;39.20;;;20.40;;
46407;SDS011;32110;45.724;21.276;2024-03-06T06:06:34;42.45;;;22.23;;
46407;SDS011;32110;45.724;21.276;2024-03-06T06:08:59;38.15;;;22.10;;
46407;SDS011;32110;45.724;21.276;2024-03-06T06:11:24;41.73;;;22.20;;
46407;SDS011;32110;45.724;21.276;2024-03-06T06:13:50;43.20;;;22.13;;
46407;SDS011;32110;45.724;21.276;2024-03-06T06:16:15;44.55;;;21.20;;
46407;SDS011;32110;45.724;21.276;2024-03-06T06:18:40;44.33;;;21.30;;
46407;SDS011;32110;45.724;21.276;2024-03-06T06:21:07;47.00;;;22.52;;
46407;SDS011;32110;45.724;21.276;2024-03-06T06:23:33;57.97;;;22.27;;
46407;SDS011;32110;45.724;21.276;2024-03-06T06:25:58;53.03;;;22.48;;
46407;SDS011;32110;45.724;21.276;2024-03-06T06:28:24;46.28;;;22.75;;
46407;SDS011;32110;45.724;21.276;2024-03-06T06:30:49;51.17;;;22.77;;
46407;SDS011;32110;45.724;21.276;2024-03-06T06:33:17;51.15;;;22.92;;
46407;SDS011;32110;45.724;21.276;2024-03-06T06:35:42;48.92;;;23.80;;
46407;SDS011;32110;45.724;21.276;2024-03-06T06:38:08;50.47;;;24.63;;
46407;SDS011;32110;45.724;21.276;2024-03-06T06:40:33;52.67;;;24.75;;
46407;SDS011;32110;45.724;21.276;2024-03-06T06:42:58;55.58;;;25.92;;
46407;SDS011;32110;45.724;21.276;2024-03-06T06:45:24;56.20;;;26.58;;
46407;SDS011;32110;45.724;21.276;2024-03-06T06:47:49;58.20;;;28.00;;
46407;SDS011;32110;45.724;21.276;2024-03-06T06:50:15;59.22;;;28.10;;
46407;SDS011;32110;45.724;21.276;2024-03-06T06:52:43;62.95;;;28.33;;
46407;SDS011;32110;45.724;21.276;2024-03-06T06:55:09;61.60;;;28.50;;
46407;SDS011;32110;45.724;21.276;2024-03-06T06:57:36;55.13;;;27.75;;
46407;SDS011;32110;45.724;21.276;2024-03-06T07:00:02;61.33;;;29.83;;
46407;SDS011;32110;45.724;21.276;2024-03-06T07:02:42;68.70;;;31.42;;
46407;SDS011;32110;45.724;21.276;2024-03-06T07:05:08;60.72;;;29.90;;
46407;SDS011;32110;45.724;21.276;2024-03-06T07:07:33;65.03;;;30.30;;
46407;SDS011;32110;45.724;21.276;2024-03-06T07:09:58;60.65;;;30.13;;
46407;SDS011;32110;45.724;21.276;2024-03-06T07:12:24;67.47;;;30.92;;
46407;SDS011;32110;45.724;21.276;2024-03-06T07:14:49;73.35;;;32.58;;
46407;SDS011;32110;45.724;21.276;2024-03-06T07:17:14;79.15;;;38.10;;
46407;SDS011;32110;45.724;21.276;2024-03-06T07:19:40;78.70;;;33.17;;
46407;SDS011;32110;45.724;21.276;2024-03-06T07:22:05;68.35;;;32.15;;
46407;SDS011;32110;45.724;21.276;2024-03-06T07:24:30;60.28;;;30.92;;
46407;SDS011;32110;45.724;21.276;2024-03-06T07:26:56;62.63;;;31.95;;
46407;SDS011;32110;45.724;21.276;2024-03-06T07:29:21;69.70;;;32.38;;
46407;SDS011;32110;45.724;21.276;2024-03-06T07:31:46;62.70;;;31.13;;
46407;SDS011;32110;45.724;21.276;2024-03-06T07:34:12;63.92;;;31.15;;
46407;SDS011;32110;45.724;21.276;2024-03-06T07:36:38;67.53;;;31.42;;
46407;SDS011;32110;45.724;21.276;2024-03-06T07:39:03;60.55;;;29.48;;
46407;SDS011;32110;45.724;21.276;2024-03-06T07:41:29;68.35;;;30.83;;
46407;SDS011;32110;45.724;21.276;2024-03-06T07:43:54;63.05;;;30.70;;
46407;SDS011;32110;45.724;21.276;2024-03-06T07:46:20;68.93;;;32.90;;
46407;SDS011;32110;45.724;21.276;2024-03-06T07:48:45;72.32;;;33.83;;
46407;SDS011;32110;45.724;21.276;2024-03-06T07:51:11;65.65;;;30.77;;
46407;SDS011;32110;45.724;21.276;2024-03-06T07:53:36;66.05;;;31.58;;
46407;SDS011;32110;45.724;21.276;2024-03-06T07:56:05;69.57;;;33.72;;
46407;SDS011;32110;45.724;21.276;2024-03-06T07:58:30;71.35;;;35.47;;
46407;SDS011;32110;45.724;21.276;2024-03-06T08:00:56;70.53;;;33.55;;
46407;SDS011;32110;45.724;21.276;2024-03-06T08:03:22;72.50;;;34.67;;
46407;SDS011;32110;45.724;21.276;2024-03-06T08:05:50;70.25;;;34.20;;
46407;SDS011;32110;45.724;21.276;2024-03-06T08:08:16;66.90;;;32.53;;
46407;SDS011;32110;45.724;21.276;2024-03-06T08:10:41;69.93;;;32.30;;
46407;SDS011;32110;45.724;21.276;2024-03-06T08:13:06;66.03;;;32.03;;
46407;SDS011;32110;45.724;21.276;2024-03-06T08:15:32;65.27;;;32.30;;
46407;SDS011;32110;45.724;21.276;2024-03-06T08:17:57;65.38;;;31.35;;
46407;SDS011;32110;45.724;21.276;2024-03-06T08:20:22;66.88;;;30.92;;
46407;SDS011;32110;45.724;21.276;2024-03-06T08:22:48;62.17;;;30.98;;
46407;SDS011;32110;45.724;21.276;2024-03-06T08:25:13;63.25;;;31.15;;
46407;SDS011;32110;45.724;21.276;2024-03-06T08:27:39;62.03;;;30.08;;
46407;SDS011;32110;45.724;21.276;2024-03-06T08:30:05;63.15;;;30.33;;
46407;SDS011;32110;45.724;21.276;2024-03-06T08:32:32;66.95;;;30.77;;
46407;SDS011;32110;45.724;21.276;2024-03-06T08:35:00;59.67;;;29.75;;
46407;SDS011;32110;45.724;21.276;2024-03-06T08:37:32;60.85;;;29.98;;
46407;SDS011;32110;45.724;21.276;2024-03-06T08:39:59;65.13;;;30.98;;
46407;SDS011;32110;45.724;21.276;2024-03-06T08:42:27;60.20;;;30.48;;
46407;SDS011;32110;45.724;21.276;2024-03-06T08:44:53;62.67;;;30.15;;
46407;SDS011;32110;45.724;21.276;2024-03-06T08:47:19;61.03;;;29.90;;
46407;SDS011;32110;45.724;21.276;2024-03-06T08:49:44;58.95;;;29.63;;
46407;SDS011;32110;45.724;21.276;2024-03-06T08:52:10;61.00;;;29.58;;
46407;SDS011;32110;45.724;21.276;2024-03-06T08:54:36;65.50;;;30.65;;
46407;SDS011;32110;45.724;21.276;2024-03-06T08:57:02;57.95;;;29.73;;
46407;SDS011;32110;45.724;21.276;2024-03-06T08:59:28;64.38;;;31.35;;
46407;SDS011;32110;45.724;21.276;2024-03-06T09:01:54;60.35;;;30.15;;
46407;SDS011;32110;45.724;21.276;2024-03-06T09:04:21;59.55;;;30.23;;
46407;SDS011;32110;45.724;21.276;2024-03-06T09:06:46;58.70;;;28.65;;
46407;SDS011;32110;45.724;21.276;2024-03-06T09:09:12;63.60;;;31.60;;
46407;SDS011;32110;45.724;21.276;2024-03-06T09:11:40;64.55;;;31.95;;
46407;SDS011;32110;45.724;21.276;2024-03-06T09:14:07;63.00;;;31.02;;
46407;SDS011;32110;45.724;21.276;2024-03-06T09:16:34;61.80;;;30.25;;
46407;SDS011;32110;45.724;21.276;2024-03-06T09:18:59;62.25;;;30.02;;
46407;SDS011;32110;45.724;21.276;2024-03-06T09:21:25;63.35;;;30.80;;
46407;SDS011;32110;45.724;21.276;2024-03-06T09:23:50;64.68;;;31.95;;
46407;SDS011;32110;45.724;21.276;2024-03-06T09:26:16;62.65;;;32.20;;
46407;SDS011;32110;45.724;21.276;2024-03-06T09:28:42;58.78;;;30.17;;
46407;SDS011;32110;45.724;21.276;2024-03-06T09:31:08;63.63;;;30.75;;
46407;SDS011;32110;45.724;21.276;2024-03-06T09:33:33;61.33;;;31.25;;
46407;SDS011;32110;45.724;21.276;2024-03-06T09:35:59;60.95;;;29.38;;
46407;SDS011;32110;45.724;21.276;2024-03-06T09:38:24;65.03;;;30.55;;
46407;SDS011;32110;45.724;21.276;2024-03-06T09:40:50;57.92;;;28.65;;
46407;SDS011;32110;45.724;21.276;2024-03-06T09:43:17;58.45;;;29.13;;
46407;SDS011;32110;45.724;21.276;2024-03-06T09:45:44;58.35;;;29.98;;
46407;SDS011;32110;45.724;21.276;2024-03-06T09:48:13;59.92;;;29.95;;
46407;SDS011;32110;45.724;21.276;2024-03-06T09:50:40;64.25;;;30.52;;
46407;SDS011;32110;45.724;21.276;2024-03-06T09:53:10;59.67;;;29.23;;
46407;SDS011;32110;45.724;21.276;2024-03-06T09:58:07;58.42;;;29.80;;
46407;SDS011;32110;45.724;21.276;2024-03-06T10:00:33;56.28;;;29.90;;
46407;SDS011;32110;45.724;21.276;2024-03-06T10:03:02;57.92;;;30.10;;
46407;SDS011;32110;45.724;21.276;2024-03-06T10:05:30;56.90;;;28.77;;
46407;SDS011;32110;45.724;21.276;2024-03-06T10:07:58;52.17;;;28.13;;
46407;SDS011;32110;45.724;21.276;2024-03-06T10:10:25;54.97;;;29.38;;
46407;SDS011;32110;45.724;21.276;2024-03-06T10:12:52;60.50;;;29.15;;
46407;SDS011;32110;45.724;21.276;2024-03-06T10:15:18;53.22;;;27.60;;
46407;SDS011;32110;45.724;21.276;2024-03-06T10:17:44;55.72;;;29.17;;
46407;SDS011;32110;45.724;21.276;2024-03-06T10:22:48;52.70;;;29.05;;
46407;SDS011;32110;45.724;21.276;2024-03-06T10:25:21;57.17;;;28.05;;
46407;SDS011;32110;45.724;21.276;2024-03-06T10:28:06;58.00;;;30.25;;
46407;SDS011;32110;45.724;21.276;2024-03-06T10:30:39;53.45;;;28.42;;
46407;SDS011;32110;45.724;21.276;2024-03-06T10:33:08;54.75;;;28.48;;
46407;SDS011;32110;45.724;21.276;2024-03-06T10:35:35;51.38;;;28.40;;
46407;SDS011;32110;45.724;21.276;2024-03-06T10:38:03;58.22;;;30.17;;
46407;SDS011;32110;45.724;21.276;2024-03-06T10:40:33;58.97;;;29.63;;
46407;SDS011;32110;45.724;21.276;2024-03-06T10:43:01;59.53;;;30.40;;
46407;SDS011;32110;45.724;21.276;2024-03-06T10:48:18;59.47;;;29.33;;
46407;SDS011;32110;45.724;21.276;2024-03-06T10:50:45;54.33;;;29.60;;
46407;SDS011;32110;45.724;21.276;2024-03-06T10:55:38;51.10;;;28.80;;
46407;SDS011;32110;45.724;21.276;2024-03-06T10:58:06;58.83;;;30.58;;
46407;SDS011;32110;45.724;21.276;2024-03-06T11:00:39;50.50;;;27.95;;
46407;SDS011;32110;45.724;21.276;2024-03-06T11:03:06;54.70;;;28.85;;
46407;SDS011;32110;45.724;21.276;2024-03-06T11:05:36;51.63;;;28.73;;
46407;SDS011;32110;45.724;21.276;2024-03-06T11:08:05;53.05;;;28.20;;
46407;SDS011;32110;45.724;21.276;2024-03-06T11:10:36;62.30;;;28.80;;
46407;SDS011;32110;45.724;21.276;2024-03-06T11:13:03;52.42;;;28.15;;
46407;SDS011;32110;45.724;21.276;2024-03-06T11:15:33;50.58;;;27.00;;
46407;SDS011;32110;45.724;21.276;2024-03-06T11:18:03;46.13;;;24.80;;
46407;SDS011;32110;45.724;21.276;2024-03-06T11:23:34;45.05;;;24.45;;
46407;SDS011;32110;45.724;21.276;2024-03-06T11:26:03;46.63;;;25.13;;
46407;SDS011;32110;45.724;21.276;2024-03-06T11:41:19;49.00;;;24.27;;
46407;SDS011;32110;45.724;21.276;2024-03-06T11:43:46;53.78;;;26.42;;
46407;SDS011;32110;45.724;21.276;2024-03-06T11:46:15;45.70;;;25.52;;
46407;SDS011;32110;45.724;21.276;2024-03-06T11:48:42;51.17;;;26.17;;
46407;SDS011;32110;45.724;21.276;2024-03-06T11:51:08;45.50;;;25.55;;
46407;SDS011;32110;45.724;21.276;2024-03-06T11:53:34;41.97;;;22.63;;
46407;SDS011;32110;45.724;21.276;2024-03-06T11:56:05;41.25;;;21.65;;
46407;SDS011;32110;45.724;21.276;2024-03-06T11:58:32;37.15;;;22.02;;
46407;SDS011;32110;45.724;21.276;2024-03-06T12:00:58;40.60;;;22.13;;
46407;SDS011;32110;45.724;21.276;2024-03-06T12:03:23;38.15;;;20.45;;
46407;SDS011;32110;45.724;21.276;2024-03-06T12:05:50;36.63;;;21.05;;
46407;SDS011;32110;45.724;21.276;2024-03-06T12:08:17;38.55;;;21.00;;
46407;SDS011;32110;45.724;21.276;2024-03-06T12:10:42;41.00;;;21.35;;
46407;SDS011;32110;45.724;21.276;2024-03-06T12:13:08;40.67;;;23.35;;
46407;SDS011;32110;45.724;21.276;2024-03-06T12:15:33;42.45;;;22.95;;
46407;SDS011;32110;45.724;21.276;2024-03-06T12:18:00;40.38;;;22.10;;
46407;SDS011;32110;45.724;21.276;2024-03-06T12:20:26;44.33;;;23.23;;
46407;SDS011;32110;45.724;21.276;2024-03-06T12:22:52;41.92;;;23.42;;
46407;SDS011;32110;45.724;21.276;2024-03-06T12:25:27;40.20;;;23.42;;
46407;SDS011;32110;45.724;21.276;2024-03-06T12:27:53;40.50;;;23.67;;
46407;SDS011;32110;45.724;21.276;2024-03-06T12:30:20;43.28;;;23.58;;
46407;SDS011;32110;45.724;21.276;2024-03-06T12:33:00;43.22;;;24.13;;
46407;SDS011;32110;45.724;21.276;2024-03-06T12:35:29;36.90;;;21.40;;
46407;SDS011;32110;45.724;21.276;2024-03-06T12:37:55;38.92;;;20.98;;
46407;SDS011;32110;45.724;21.276;2024-03-06T12:40:21;41.03;;;22.70;;
46407;SDS011;32110;45.724;21.276;2024-03-06T12:42:47;37.13;;;21.55;;
46407;SDS011;32110;45.724;21.276;2024-03-06T12:45:14;37.72;;;22.40;;
46407;SDS011;32110;45.724;21.276;2024-03-06T12:47:44;44.00;;;23.48;;
46407;SDS011;32110;45.724;21.276;2024-03-06T12:50:12;38.65;;;22.73;;
46407;SDS011;32110;45.724;21.276;2024-03-06T12:52:38;40.70;;;24.05;;
46407;SDS011;32110;45.724;21.276;2024-03-06T12:55:04;44.10;;;24.42;;
46407;SDS011;32110;45.724;21.276;2024-03-06T12:57:33;43.65;;;24.52;;
46407;SDS011;32110;45.724;21.276;2024-03-06T12:59:59;43.85;;;23.27;;
46407;SDS011;32110;45.724;21.276;2024-03-06T13:02:25;41.15;;;23.48;;
46407;SDS011;32110;45.724;21.276;2024-03-06T13:04:51;43.15;;;23.25;;
46407;SDS011;32110;45.724;21.276;2024-03-06T13:07:17;42.08;;;23.08;;
46407;SDS011;32110;45.724;21.276;2024-03-06T13:09:43;40.45;;;22.55;;
46407;SDS011;32110;45.724;21.276;2024-03-06T13:12:09;33.70;;;20.45;;
46407;SDS011;32110;45.724;21.276;2024-03-06T13:14:35;38.78;;;22.63;;
46407;SDS011;32110;45.724;21.276;2024-03-06T13:17:01;40.83;;;22.88;;
46407;SDS011;32110;45.724;21.276;2024-03-06T13:19:27;34.58;;;21.50;;
46407;SDS011;32110;45.724;21.276;2024-03-06T13:21:53;37.92;;;21.75;;
46407;SDS011;32110;45.724;21.276;2024-03-06T13:24:18;37.97;;;22.80;;
46407;SDS011;32110;45.724;21.276;2024-03-06T13:26:44;34.90;;;21.10;;
46407;SDS011;32110;45.724;21.276;2024-03-06T13:29:13;36.13;;;20.93;;
46407;SDS011;32110;45.724;21.276;2024-03-06T13:31:39;33.95;;;21.75;;
46407;SDS011;32110;45.724;21.276;2024-03-06T13:34:04;39.45;;;22.60;;
46407;SDS011;32110;45.724;21.276;2024-03-06T13:36:30;37.42;;;21.20;;
46407;SDS011;32110;45.724;21.276;2024-03-06T13:38:56;33.95;;;21.58;;
46407;SDS011;32110;45.724;21.276;2024-03-06T13:41:22;35.92;;;21.58;;
46407;SDS011;32110;45.724;21.276;2024-03-06T13:43:48;41.15;;;22.77;;
46407;SDS011;32110;45.724;21.276;2024-03-06T13:46:13;37.47;;;21.15;;
46407;SDS011;32110;45.724;21.276;2024-03-06T13:48:39;36.72;;;21.30;;
46407;SDS011;32110;45.724;21.276;2024-03-06T13:51:05;35.92;;;20.90;;
46407;SDS011;32110;45.724;21.276;2024-03-06T13:53:31;32.85;;;18.48;;
46407;SDS011;32110;45.724;21.276;2024-03-06T13:55:56;35.95;;;19.27;;
46407;SDS011;32110;45.724;21.276;2024-03-06T13:58:22;31.05;;;18.58;;
46407;SDS011;32110;45.724;21.276;2024-03-06T14:00:48;36.92;;;20.50;;
46407;SDS011;32110;45.724;21.276;2024-03-06T14:03:14;36.13;;;19.20;;
46407;SDS011;32110;45.724;21.276;2024-03-06T14:05:39;33.80;;;20.25;;
46407;SDS011;32110;45.724;21.276;2024-03-06T14:08:05;32.25;;;18.88;;
46407;SDS011;32110;45.724;21.276;2024-03-06T14:10:31;33.63;;;18.33;;
46407;SDS011;32110;45.724;21.276;2024-03-06T14:13:00;28.83;;;17.50;;
46407;SDS011;32110;45.724;21.276;2024-03-06T14:15:26;34.60;;;18.83;;
46407;SDS011;32110;45.724;21.276;2024-03-06T14:17:52;27.70;;;17.55;;
46407;SDS011;32110;45.724;21.276;2024-03-06T14:20:19;31.67;;;17.45;;
46407;SDS011;32110;45.724;21.276;2024-03-06T14:22:45;28.13;;;15.65;;
46407;SDS011;32110;45.724;21.276;2024-03-06T14:25:11;30.20;;;17.75;;
46407;SDS011;32110;45.724;21.276;2024-03-06T14:27:36;28.98;;;18.05;;
46407;SDS011;32110;45.724;21.276;2024-03-06T14:30:03;32.40;;;18.67;;
46407;SDS011;32110;45.724;21.276;2024-03-06T14:32:29;34.08;;;19.95;;